sensor_id;sensor_type;location;lat;lon;timestamp;temperature;humidity
30336;DHT22;17142;47.990;7.846;2023-03-01T09:13:06;1.50;99.90
30336;DHT22;17142;47.990;7.846;2023-03-01T09:15:32;1.70;99.90
30336;DHT22;17142;47.990;7.846;2023-03-01T09:17:59;1.90;99.90
30336;DHT22;17142;47.990;7.846;2023-03-01T09:20:25;1.90;99.90
30336;DHT22;17142;47.990;7.846;2023-03-01T09:22:50;2.00;99.90
30336;DHT22;17142;47.990;7.846;2023-03-01T09:25:16;2.10;99.90
30336;DHT22;17142;47.990;7.846;2023-03-01T09:27:41;2.20;99.90
30336;DHT22;17142;47.990;7.846;2023-03-01T09:30:07;2.30;99.90
30336;DHT22;17142;47.990;7.846;2023-03-01T09:32:36;2.30;99.90
30336;DHT22;17142;47.990;7.846;2023-03-01T09:35:01;2.30;99.90
30336;DHT22;17142;47.990;7.846;2023-03-01T09:37:31;2.40;99.90
30336;DHT22;17142;47.990;7.846;2023-03-01T09:39:57;2.40;99.90
30336;DHT22;17142;47.990;7.846;2023-03-01T09:42:22;2.50;99.90
30336;DHT22;17142;47.990;7.846;2023-03-01T09:44:53;2.50;99.90
30336;DHT22;17142;47.990;7.846;2023-03-01T09:47:23;2.60;99.90
30336;DHT22;17142;47.990;7.846;2023-03-01T09:50:18;2.80;99.90
30336;DHT22;17142;47.990;7.846;2023-03-01T09:52:54;2.90;99.90
30336;DHT22;17142;47.990;7.846;2023-03-01T09:55:29;2.90;99.90
30336;DHT22;17142;47.990;7.846;2023-03-01T09:58:04;2.90;99.90
30336;DHT22;17142;47.990;7.846;2023-03-01T10:00:47;3.00;99.90
30336;DHT22;17142;47.990;7.846;2023-03-01T10:10:57;3.10;99.90
30336;DHT22;17142;47.990;7.846;2023-03-01T10:19:11;3.40;99.90
30336;DHT22;17142;47.990;7.846;2023-03-01T10:21:45;3.50;99.90
30336;DHT22;17142;47.990;7.846;2023-03-01T10:24:19;3.60;99.90
30336;DHT22;17142;47.990;7.846;2023-03-01T10:26:53;3.80;99.90
30336;DHT22;17142;47.990;7.846;2023-03-01T10:29:25;4.00;99.90
30336;DHT22;17142;47.990;7.846;2023-03-01T10:31:54;4.20;99.90
30336;DHT22;17142;47.990;7.846;2023-03-01T10:34:31;4.20;99.90
30336;DHT22;17142;47.990;7.846;2023-03-01T10:39:35;4.30;99.90
30336;DHT22;17142;47.990;7.846;2023-03-01T10:42:09;4.40;99.90
30336;DHT22;17142;47.990;7.846;2023-03-01T10:44:49;4.20;99.90
30336;DHT22;17142;47.990;7.846;2023-03-01T10:47:23;4.10;99.90
30336;DHT22;17142;47.990;7.846;2023-03-01T10:52:41;4.00;99.90
30336;DHT22;17142;47.990;7.846;2023-03-01T10:57:39;3.90;99.90
30336;DHT22;17142;47.990;7.846;2023-03-01T11:00:25;4.00;99.90
30336;DHT22;17142;47.990;7.846;2023-03-01T11:03:11;4.20;99.90
30336;DHT22;17142;47.990;7.846;2023-03-01T11:05:50;4.30;99.90
30336;DHT22;17142;47.990;7.846;2023-03-01T11:08:33;4.40;99.90
30336;DHT22;17142;47.990;7.846;2023-03-01T11:11:32;4.50;99.90
30336;DHT22;17142;47.990;7.846;2023-03-01T11:16:37;4.30;99.90
30336;DHT22;17142;47.990;7.846;2023-03-01T11:21:52;4.40;99.90
30336;DHT22;17142;47.990;7.846;2023-03-01T11:24:20;4.60;99.90
30336;DHT22;17142;47.990;7.846;2023-03-01T11:26:54;4.70;99.90
30336;DHT22;17142;47.990;7.846;2023-03-01T11:32:21;4.90;99.90
30336;DHT22;17142;47.990;7.846;2023-03-01T11:34:59;4.80;99.90
30336;DHT22;17142;47.990;7.846;2023-03-01T11:37:38;4.80;99.90
30336;DHT22;17142;47.990;7.846;2023-03-01T11:40:20;4.80;99.90
30336;DHT22;17142;47.990;7.846;2023-03-01T11:48:48;4.90;99.90
30336;DHT22;17142;47.990;7.846;2023-03-01T11:56:52;5.30;99.90
30336;DHT22;17142;47.990;7.846;2023-03-01T12:10:23;5.40;99.60
30336;DHT22;17142;47.990;7.846;2023-03-01T12:13:16;5.30;99.90
30336;DHT22;17142;47.990;7.846;2023-03-01T12:16:07;5.20;99.80
30336;DHT22;17142;47.990;7.846;2023-03-01T12:29:38;6.00;99.40
30336;DHT22;17142;47.990;7.846;2023-03-01T12:32:21;6.30;98.90
30336;DHT22;17142;47.990;7.846;2023-03-01T12:35:12;6.70;97.60
30336;DHT22;17142;47.990;7.846;2023-03-01T12:37:56;6.90;96.80
30336;DHT22;17142;47.990;7.846;2023-03-01T12:51:23;8.00;88.30
30336;DHT22;17142;47.990;7.846;2023-03-01T12:53:54;7.90;86.30
30336;DHT22;17142;47.990;7.846;2023-03-01T12:56:28;7.90;85.60
30336;DHT22;17142;47.990;7.846;2023-03-01T12:59:20;7.90;84.60
30336;DHT22;17142;47.990;7.846;2023-03-01T13:07:41;8.10;83.80
30336;DHT22;17142;47.990;7.846;2023-03-01T13:23:12;7.80;80.00
30336;DHT22;17142;47.990;7.846;2023-03-01T13:31:11;8.20;80.80
30336;DHT22;17142;47.990;7.846;2023-03-01T13:39:04;8.10;76.30
30336;DHT22;17142;47.990;7.846;2023-03-01T13:44:35;7.70;78.40
30336;DHT22;17142;47.990;7.846;2023-03-01T13:49:43;7.50;79.90
30336;DHT22;17142;47.990;7.846;2023-03-01T13:55:03;7.70;77.60
30336;DHT22;17142;47.990;7.846;2023-03-01T13:57:37;7.70;78.00
30336;DHT22;17142;47.990;7.846;2023-03-01T14:00:06;7.60;78.40
30336;DHT22;17142;47.990;7.846;2023-03-01T14:02:34;7.70;78.50
30336;DHT22;17142;47.990;7.846;2023-03-01T14:05:01;7.80;78.40
30336;DHT22;17142;47.990;7.846;2023-03-01T14:07:28;8.00;78.10
30336;DHT22;17142;47.990;7.846;2023-03-01T14:10:00;8.00;77.10
30336;DHT22;17142;47.990;7.846;2023-03-01T14:20:24;7.80;76.50
30336;DHT22;17142;47.990;7.846;2023-03-01T14:22:54;7.80;77.20
30336;DHT22;17142;47.990;7.846;2023-03-01T14:25:31;7.80;77.60
30336;DHT22;17142;47.990;7.846;2023-03-01T14:28:02;7.80;77.60
30336;DHT22;17142;47.990;7.846;2023-03-01T14:30:38;7.90;77.20
30336;DHT22;17142;47.990;7.846;2023-03-01T14:33:28;7.90;77.30
30336;DHT22;17142;47.990;7.846;2023-03-01T14:36:12;7.80;76.60
30336;DHT22;17142;47.990;7.846;2023-03-01T14:38:42;7.80;78.10
30336;DHT22;17142;47.990;7.846;2023-03-01T14:41:20;7.80;77.20
30336;DHT22;17142;47.990;7.846;2023-03-01T14:43:58;7.90;77.20
30336;DHT22;17142;47.990;7.846;2023-03-01T14:49:18;8.00;75.40
30336;DHT22;17142;47.990;7.846;2023-03-01T14:51:53;8.00;75.30
30336;DHT22;17142;47.990;7.846;2023-03-01T14:54:48;8.00;75.60
30336;DHT22;17142;47.990;7.846;2023-03-01T14:57:16;8.00;75.90
30336;DHT22;17142;47.990;7.846;2023-03-01T14:59:45;8.00;75.10
30336;DHT22;17142;47.990;7.846;2023-03-01T15:02:17;7.90;75.70
30336;DHT22;17142;47.990;7.846;2023-03-01T15:04:50;7.80;76.40
30336;DHT22;17142;47.990;7.846;2023-03-01T15:07:17;7.70;76.40
30336;DHT22;17142;47.990;7.846;2023-03-01T15:09:43;7.50;76.40
30336;DHT22;17142;47.990;7.846;2023-03-01T15:14:58;7.30;77.80
30336;DHT22;17142;47.990;7.846;2023-03-01T15:17:39;7.20;78.10
30336;DHT22;17142;47.990;7.846;2023-03-01T15:20:14;7.20;78.60
30336;DHT22;17142;47.990;7.846;2023-03-01T15:22:46;7.20;79.00
30336;DHT22;17142;47.990;7.846;2023-03-01T15:25:18;7.20;78.10
30336;DHT22;17142;47.990;7.846;2023-03-01T15:27:48;7.10;78.50
30336;DHT22;17142;47.990;7.846;2023-03-01T15:30:30;7.00;79.10
30336;DHT22;17142;47.990;7.846;2023-03-01T15:35:51;6.90;80.90
30336;DHT22;17142;47.990;7.846;2023-03-01T15:40:59;7.00;83.10
30336;DHT22;17142;47.990;7.846;2023-03-01T15:43:46;6.90;83.60
30336;DHT22;17142;47.990;7.846;2023-03-01T15:46:22;6.90;83.90
30336;DHT22;17142;47.990;7.846;2023-03-01T15:48:52;6.80;84.20
30336;DHT22;17142;47.990;7.846;2023-03-01T15:51:35;6.80;84.70
30336;DHT22;17142;47.990;7.846;2023-03-01T15:54:05;6.70;84.90
30336;DHT22;17142;47.990;7.846;2023-03-01T15:56:36;6.70;84.80
30336;DHT22;17142;47.990;7.846;2023-03-01T15:59:04;6.70;85.40
30336;DHT22;17142;47.990;7.846;2023-03-01T16:01:32;6.60;85.90
30336;DHT22;17142;47.990;7.846;2023-03-01T16:04:03;6.50;86.60
30336;DHT22;17142;47.990;7.846;2023-03-01T16:06:29;6.50;86.70
30336;DHT22;17142;47.990;7.846;2023-03-01T16:08:55;6.50;85.90
30336;DHT22;17142;47.990;7.846;2023-03-01T16:11:20;6.50;86.40
30336;DHT22;17142;47.990;7.846;2023-03-01T16:13:46;6.30;87.00
30336;DHT22;17142;47.990;7.846;2023-03-01T16:16:13;6.30;87.70
30336;DHT22;17142;47.990;7.846;2023-03-01T16:18:45;6.30;87.90
30336;DHT22;17142;47.990;7.846;2023-03-01T16:21:19;6.30;88.10
30336;DHT22;17142;47.990;7.846;2023-03-01T16:23:50;6.10;88.10
30336;DHT22;17142;47.990;7.846;2023-03-01T16:26:17;6.10;88.50
30336;DHT22;17142;47.990;7.846;2023-03-01T16:28:46;6.00;89.00
30336;DHT22;17142;47.990;7.846;2023-03-01T16:31:17;6.00;88.70
30336;DHT22;17142;47.990;7.846;2023-03-01T16:33:45;5.90;90.10
30336;DHT22;17142;47.990;7.846;2023-03-01T16:36:16;5.80;90.10
30336;DHT22;17142;47.990;7.846;2023-03-01T16:38:44;5.70;90.10
30336;DHT22;17142;47.990;7.846;2023-03-01T16:41:12;5.70;90.40
30336;DHT22;17142;47.990;7.846;2023-03-01T16:43:41;5.60;90.80
30336;DHT22;17142;47.990;7.846;2023-03-01T16:46:14;5.50;90.80
30336;DHT22;17142;47.990;7.846;2023-03-01T16:48:42;5.40;91.30
30336;DHT22;17142;47.990;7.846;2023-03-01T16:51:08;5.40;91.50
30336;DHT22;17142;47.990;7.846;2023-03-01T16:53:35;5.30;91.50
30336;DHT22;17142;47.990;7.846;2023-03-01T16:56:07;5.30;91.60
30336;DHT22;17142;47.990;7.846;2023-03-01T16:58:39;5.20;91.90
30336;DHT22;17142;47.990;7.846;2023-03-01T17:01:11;5.20;92.20
30336;DHT22;17142;47.990;7.846;2023-03-01T17:03:39;5.10;92.50
30336;DHT22;17142;47.990;7.846;2023-03-01T17:06:10;5.10;92.90
30336;DHT22;17142;47.990;7.846;2023-03-01T17:08:37;5.00;93.10
30336;DHT22;17142;47.990;7.846;2023-03-01T17:11:20;5.00;93.20
30336;DHT22;17142;47.990;7.846;2023-03-01T17:13:47;5.10;93.10
30336;DHT22;17142;47.990;7.846;2023-03-01T17:16:15;5.10;93.20
30336;DHT22;17142;47.990;7.846;2023-03-01T17:18:41;5.10;93.30
30336;DHT22;17142;47.990;7.846;2023-03-01T17:21:09;5.10;93.40
30336;DHT22;17142;47.990;7.846;2023-03-01T17:23:37;5.10;93.60
30336;DHT22;17142;47.990;7.846;2023-03-01T17:26:03;5.10;93.70
30336;DHT22;17142;47.990;7.846;2023-03-01T17:28:30;5.10;93.80
30336;DHT22;17142;47.990;7.846;2023-03-01T17:30:58;5.00;93.90
30336;DHT22;17142;47.990;7.846;2023-03-01T17:33:25;5.00;94.10
30336;DHT22;17142;47.990;7.846;2023-03-01T17:35:51;5.00;94.40
30336;DHT22;17142;47.990;7.846;2023-03-01T17:38:17;4.90;94.70
30336;DHT22;17142;47.990;7.846;2023-03-01T17:40:45;4.80;95.20
30336;DHT22;17142;47.990;7.846;2023-03-01T17:43:12;4.80;95.50
30336;DHT22;17142;47.990;7.846;2023-03-01T17:45:38;4.70;95.90
30336;DHT22;17142;47.990;7.846;2023-03-01T17:48:05;4.60;96.40
30336;DHT22;17142;47.990;7.846;2023-03-01T17:50:32;4.60;96.80
30336;DHT22;17142;47.990;7.846;2023-03-01T17:52:58;4.50;97.10
30336;DHT22;17142;47.990;7.846;2023-03-01T17:55:24;4.40;97.40
30336;DHT22;17142;47.990;7.846;2023-03-01T17:57:53;4.40;97.60
30336;DHT22;17142;47.990;7.846;2023-03-01T18:00:19;4.40;98.10
30336;DHT22;17142;47.990;7.846;2023-03-01T18:02:44;4.30;98.10
30336;DHT22;17142;47.990;7.846;2023-03-01T18:05:12;4.30;98.50
30336;DHT22;17142;47.990;7.846;2023-03-01T18:07:40;4.20;98.70
30336;DHT22;17142;47.990;7.846;2023-03-01T18:10:09;4.20;98.90
30336;DHT22;17142;47.990;7.846;2023-03-01T18:12:37;4.20;99.10
30336;DHT22;17142;47.990;7.846;2023-03-01T18:15:05;4.10;99.40
30336;DHT22;17142;47.990;7.846;2023-03-01T18:17:31;4.10;99.50
30336;DHT22;17142;47.990;7.846;2023-03-01T18:19:59;4.10;99.70
30336;DHT22;17142;47.990;7.846;2023-03-01T18:22:24;4.10;99.90
30336;DHT22;17142;47.990;7.846;2023-03-01T18:24:50;4.10;99.90
30336;DHT22;17142;47.990;7.846;2023-03-01T18:27:18;4.10;99.90
30336;DHT22;17142;47.990;7.846;2023-03-01T18:29:44;4.00;99.90
30336;DHT22;17142;47.990;7.846;2023-03-01T18:32:09;4.00;99.90
30336;DHT22;17142;47.990;7.846;2023-03-01T18:34:35;4.00;99.90
30336;DHT22;17142;47.990;7.846;2023-03-01T18:37:03;4.00;99.90
30336;DHT22;17142;47.990;7.846;2023-03-01T18:39:33;4.00;99.90
30336;DHT22;17142;47.990;7.846;2023-03-01T18:41:59;3.90;99.90
30336;DHT22;17142;47.990;7.846;2023-03-01T18:44:25;4.00;99.90
30336;DHT22;17142;47.990;7.846;2023-03-01T18:46:50;3.90;99.90
30336;DHT22;17142;47.990;7.846;2023-03-01T18:49:19;3.80;99.90
30336;DHT22;17142;47.990;7.846;2023-03-01T18:51:45;3.80;99.90
30336;DHT22;17142;47.990;7.846;2023-03-01T18:54:14;3.80;99.90
30336;DHT22;17142;47.990;7.846;2023-03-01T18:56:40;3.70;99.90
30336;DHT22;17142;47.990;7.846;2023-03-01T18:59:05;3.70;99.90
30336;DHT22;17142;47.990;7.846;2023-03-01T19:01:31;3.70;99.90
30336;DHT22;17142;47.990;7.846;2023-03-01T19:03:58;3.80;99.90
30336;DHT22;17142;47.990;7.846;2023-03-01T19:06:30;3.80;99.90
30336;DHT22;17142;47.990;7.846;2023-03-01T19:08:57;3.80;99.90
30336;DHT22;17142;47.990;7.846;2023-03-01T19:11:23;3.70;99.90
30336;DHT22;17142;47.990;7.846;2023-03-01T19:13:52;3.70;99.90
30336;DHT22;17142;47.990;7.846;2023-03-01T19:16:20;3.70;99.90
30336;DHT22;17142;47.990;7.846;2023-03-01T19:18:46;3.60;99.90
30336;DHT22;17142;47.990;7.846;2023-03-01T19:21:20;3.50;99.90
30336;DHT22;17142;47.990;7.846;2023-03-01T19:23:47;3.50;99.90
30336;DHT22;17142;47.990;7.846;2023-03-01T19:26:18;3.40;99.90
30336;DHT22;17142;47.990;7.846;2023-03-01T19:28:46;3.30;99.90
30336;DHT22;17142;47.990;7.846;2023-03-01T19:31:19;3.20;99.90
30336;DHT22;17142;47.990;7.846;2023-03-01T19:33:48;3.20;99.90
30336;DHT22;17142;47.990;7.846;2023-03-01T19:36:14;3.10;99.90
30336;DHT22;17142;47.990;7.846;2023-03-01T19:38:42;3.00;99.90
30336;DHT22;17142;47.990;7.846;2023-03-01T19:41:11;2.90;99.90
30336;DHT22;17142;47.990;7.846;2023-03-01T19:43:39;2.90;99.90
30336;DHT22;17142;47.990;7.846;2023-03-01T19:46:05;2.90;99.90
30336;DHT22;17142;47.990;7.846;2023-03-01T19:48:31;2.90;99.90
30336;DHT22;17142;47.990;7.846;2023-03-01T19:51:01;2.90;99.90
30336;DHT22;17142;47.990;7.846;2023-03-01T19:53:27;2.90;99.90
30336;DHT22;17142;47.990;7.846;2023-03-01T19:55:59;2.90;99.90
30336;DHT22;17142;47.990;7.846;2023-03-01T19:58:27;2.90;99.90
30336;DHT22;17142;47.990;7.846;2023-03-01T20:00:56;2.90;99.90
30336;DHT22;17142;47.990;7.846;2023-03-01T20:03:35;2.90;99.90
30336;DHT22;17142;47.990;7.846;2023-03-01T20:06:09;2.90;99.90
30336;DHT22;17142;47.990;7.846;2023-03-01T20:08:38;2.90;99.90
30336;DHT22;17142;47.990;7.846;2023-03-01T20:11:06;3.00;99.90
30336;DHT22;17142;47.990;7.846;2023-03-01T20:13:32;3.00;99.90
30336;DHT22;17142;47.990;7.846;2023-03-01T20:15:57;3.00;99.90
30336;DHT22;17142;47.990;7.846;2023-03-01T20:18:23;3.00;99.90
30336;DHT22;17142;47.990;7.846;2023-03-01T20:20:50;2.90;99.90
30336;DHT22;17142;47.990;7.846;2023-03-01T20:23:17;2.90;99.90
30336;DHT22;17142;47.990;7.846;2023-03-01T20:25:46;2.90;99.90
30336;DHT22;17142;47.990;7.846;2023-03-01T20:28:18;2.90;99.90
30336;DHT22;17142;47.990;7.846;2023-03-01T20:30:44;2.80;99.90
30336;DHT22;17142;47.990;7.846;2023-03-01T20:33:10;2.80;99.90
30336;DHT22;17142;47.990;7.846;2023-03-01T20:35:40;2.80;99.90
30336;DHT22;17142;47.990;7.846;2023-03-01T20:38:08;2.80;99.90
30336;DHT22;17142;47.990;7.846;2023-03-01T20:40:35;2.80;99.90
30336;DHT22;17142;47.990;7.846;2023-03-01T20:43:01;2.80;99.90
30336;DHT22;17142;47.990;7.846;2023-03-01T20:45:29;2.90;99.90
30336;DHT22;17142;47.990;7.846;2023-03-01T20:47:56;2.90;99.90
30336;DHT22;17142;47.990;7.846;2023-03-01T20:50:25;2.90;99.90
30336;DHT22;17142;47.990;7.846;2023-03-01T20:52:55;2.90;99.90
30336;DHT22;17142;47.990;7.846;2023-03-01T20:55:23;2.90;99.90
30336;DHT22;17142;47.990;7.846;2023-03-01T20:57:48;2.90;99.90
30336;DHT22;17142;47.990;7.846;2023-03-01T21:00:19;2.90;99.90
30336;DHT22;17142;47.990;7.846;2023-03-01T21:02:47;2.90;99.90
30336;DHT22;17142;47.990;7.846;2023-03-01T21:05:15;2.90;99.90
30336;DHT22;17142;47.990;7.846;2023-03-01T21:07:46;2.90;99.90
30336;DHT22;17142;47.990;7.846;2023-03-01T21:10:12;2.90;99.90
30336;DHT22;17142;47.990;7.846;2023-03-01T21:12:37;2.90;99.90
30336;DHT22;17142;47.990;7.846;2023-03-01T21:15:06;2.90;99.90
30336;DHT22;17142;47.990;7.846;2023-03-01T21:17:32;2.90;99.90
30336;DHT22;17142;47.990;7.846;2023-03-01T21:20:00;2.90;99.90
30336;DHT22;17142;47.990;7.846;2023-03-01T21:22:26;2.90;99.90
30336;DHT22;17142;47.990;7.846;2023-03-01T21:24:55;2.90;99.90
30336;DHT22;17142;47.990;7.846;2023-03-01T21:27:20;3.00;99.90
30336;DHT22;17142;47.990;7.846;2023-03-01T21:29:46;3.00;99.90
30336;DHT22;17142;47.990;7.846;2023-03-01T21:32:13;2.90;99.90
30336;DHT22;17142;47.990;7.846;2023-03-01T21:34:43;2.90;99.90
30336;DHT22;17142;47.990;7.846;2023-03-01T21:37:11;2.90;99.90
30336;DHT22;17142;47.990;7.846;2023-03-01T21:39:37;2.90;99.90
30336;DHT22;17142;47.990;7.846;2023-03-01T21:42:05;2.90;99.90
30336;DHT22;17142;47.990;7.846;2023-03-01T21:44:31;2.90;99.90
30336;DHT22;17142;47.990;7.846;2023-03-01T21:46:59;2.90;99.90
30336;DHT22;17142;47.990;7.846;2023-03-01T21:49:29;2.90;99.90
30336;DHT22;17142;47.990;7.846;2023-03-01T21:51:55;2.90;99.90
30336;DHT22;17142;47.990;7.846;2023-03-01T21:54:23;3.00;99.90
30336;DHT22;17142;47.990;7.846;2023-03-01T21:56:49;3.00;99.90
30336;DHT22;17142;47.990;7.846;2023-03-01T21:59:19;3.00;99.90
30336;DHT22;17142;47.990;7.846;2023-03-01T22:01:49;3.00;99.90
30336;DHT22;17142;47.990;7.846;2023-03-01T22:04:18;3.00;99.90
30336;DHT22;17142;47.990;7.846;2023-03-01T22:06:45;3.00;99.90
30336;DHT22;17142;47.990;7.846;2023-03-01T22:09:16;3.10;99.90
30336;DHT22;17142;47.990;7.846;2023-03-01T22:11:47;3.10;99.90
30336;DHT22;17142;47.990;7.846;2023-03-01T22:14:18;3.10;99.90
30336;DHT22;17142;47.990;7.846;2023-03-01T22:16:44;3.10;99.90
30336;DHT22;17142;47.990;7.846;2023-03-01T22:19:13;3.10;99.90
30336;DHT22;17142;47.990;7.846;2023-03-01T22:21:40;3.10;99.90
30336;DHT22;17142;47.990;7.846;2023-03-01T22:24:07;3.10;99.90
30336;DHT22;17142;47.990;7.846;2023-03-01T22:29:01;3.10;99.90
30336;DHT22;17142;47.990;7.846;2023-03-01T22:31:27;3.10;99.90
30336;DHT22;17142;47.990;7.846;2023-03-01T22:33:54;3.10;99.90
30336;DHT22;17142;47.990;7.846;2023-03-01T22:36:20;3.00;99.90
30336;DHT22;17142;47.990;7.846;2023-03-01T22:38:46;3.00;99.90
30336;DHT22;17142;47.990;7.846;2023-03-01T22:41:12;3.00;99.90
30336;DHT22;17142;47.990;7.846;2023-03-01T22:43:38;3.00;99.90
30336;DHT22;17142;47.990;7.846;2023-03-01T22:46:12;3.00;99.90
30336;DHT22;17142;47.990;7.846;2023-03-01T22:48:38;3.00;99.90
30336;DHT22;17142;47.990;7.846;2023-03-01T22:51:07;2.90;99.90
30336;DHT22;17142;47.990;7.846;2023-03-01T22:53:34;2.90;99.90
30336;DHT22;17142;47.990;7.846;2023-03-01T22:56:16;2.90;99.90
30336;DHT22;17142;47.990;7.846;2023-03-01T22:58:42;2.90;99.90
30336;DHT22;17142;47.990;7.846;2023-03-01T23:01:13;2.90;99.90
30336;DHT22;17142;47.990;7.846;2023-03-01T23:03:39;2.80;99.90
30336;DHT22;17142;47.990;7.846;2023-03-01T23:06:05;2.70;99.90
30336;DHT22;17142;47.990;7.846;2023-03-01T23:08:30;2.70;99.90
30336;DHT22;17142;47.990;7.846;2023-03-01T23:10:56;2.70;99.90
30336;DHT22;17142;47.990;7.846;2023-03-01T23:13:22;2.70;99.90
30336;DHT22;17142;47.990;7.846;2023-03-01T23:15:52;2.60;99.90
30336;DHT22;17142;47.990;7.846;2023-03-01T23:18:18;2.60;99.90
30336;DHT22;17142;47.990;7.846;2023-03-01T23:20:44;2.50;99.90
30336;DHT22;17142;47.990;7.846;2023-03-01T23:23:12;2.50;99.90
30336;DHT22;17142;47.990;7.846;2023-03-01T23:25:38;2.40;99.90
30336;DHT22;17142;47.990;7.846;2023-03-01T23:28:04;2.30;99.90
30336;DHT22;17142;47.990;7.846;2023-03-01T23:30:34;2.20;99.90
30336;DHT22;17142;47.990;7.846;2023-03-01T23:33:00;2.10;99.90
30336;DHT22;17142;47.990;7.846;2023-03-01T23:35:26;2.00;99.90
30336;DHT22;17142;47.990;7.846;2023-03-01T23:37:54;1.90;99.90
30336;DHT22;17142;47.990;7.846;2023-03-01T23:40:24;1.90;99.90
30336;DHT22;17142;47.990;7.846;2023-03-01T23:42:50;1.80;99.90
30336;DHT22;17142;47.990;7.846;2023-03-01T23:45:16;1.80;99.90
30336;DHT22;17142;47.990;7.846;2023-03-01T23:47:41;1.70;99.90
30336;DHT22;17142;47.990;7.846;2023-03-01T23:50:09;1.60;99.90
30336;DHT22;17142;47.990;7.846;2023-03-01T23:52:37;1.60;99.90
30336;DHT22;17142;47.990;7.846;2023-03-01T23:55:07;1.50;99.90
30336;DHT22;17142;47.990;7.846;2023-03-01T23:57:38;1.40;99.90
